Flight Track Log - Related Links

Times and Time Zones

All times are in EDT time to prevent confusion due to time zone crossing. See the UAL3835 flight status page for this flight to view local times or setup timezone preferences in your user account.

Time Position Orientation Groundspeed Altitude Reporting Facility
EDT Latitude Longitude Course Direction KTS MPH feet Rate Location/Type
Tue 07:06:30 AM 44.7853 -89.6361 145° Southeast 137 158 2,300  Level Minneapolis Center
Tue 07:07:31 AM 44.7436 -89.5956 145° Southeast 194 223 3,900 1,721 Climbing Minneapolis Center
Tue 07:08:32 AM 44.6972 -89.5442 142° Southeast 219 252 5,800 2,033 Climbing Minneapolis Center
Tue 07:09:32 AM 44.6378 -89.4769 141° Southeast 259 298 8,000 2,231 Climbing Minneapolis Center
Tue 07:10:33 AM 44.5786 -89.4106 141° Southeast 276 318 10,300 1,537 Climbing Minneapolis Center
Tue 07:11:33 AM 44.5081 -89.3300 141° Southeast 309 356 11,100 1,190 Climbing Minneapolis Center
Tue 07:12:34 AM 44.4347 -89.2444 140° Southeast 347 399 12,700 1,623 Climbing Minneapolis Center
Tue 07:13:35 AM 44.3536 -89.1531 141° Southeast 353 406 14,400 1,537 Climbing Minneapolis Center
Tue 07:14:35 AM 44.2789 -89.0686 141° Southeast 354 407 15,800 1,339 Climbing Minneapolis Center
Tue 07:15:36 AM 44.2000 -88.9806 141° Southeast 371 427 17,100 1,180 Climbing Minneapolis Center
Tue 07:16:37 AM 44.1197 -88.8914 141° Southeast 371 427 18,200 1,200 Climbing Minneapolis Center
Tue 07:17:11 AM 44.0708 -88.8372 141° Southeast 369 425 19,000 250 Climbing Chicago Center
Tue 07:18:13 AM 43.9864 -88.7408 141° Southeast 390 449 18,600 -1,415 Descending Chicago Center
Tue 07:19:14 AM 43.8992 -88.6458 142° Southeast 399 459 16,100 -1,820 Descending Chicago Center
Tue 07:20:15 AM 43.8192 -88.5583 142° Southeast 373 429 14,900 -1,122 Descending Chicago Center
Tue 07:21:17 AM 43.7389 -88.4703 142° Southeast 368 423 13,800 -927 Descending Chicago Center
Tue 07:22:18 AM 43.6575 -88.3814 142° Southeast 370 426 13,000 -393 Descending Chicago Center
Tue 07:23:19 AM 43.5756 -88.2925 142° Southeast 370 426 13,000  Level Chicago Center
Tue 07:24:21 AM 43.4936 -88.2025 141° Southeast 370 426 13,000 -537 Level Chicago Center
Tue 07:25:22 AM 43.3847 -88.1247 153° Southeast 371 427 11,900 -976 Descending Chicago Center
Tue 07:26:24 AM 43.2811 -88.0961 169° South 373 429 11,000 -439 Descending Chicago Center
Tue 07:27:25 AM 43.1792 -88.0678 169° South 373 429 11,000  Level Chicago Center
Tue 07:28:27 AM 43.0811 -88.0969 192° South 374 430 11,000  Level Chicago Center
Tue 07:29:28 AM 42.9889 -88.1661 209° Southwest 376 433 11,000  Level Chicago Center
Tue 07:30:30 AM 42.8983 -88.2361 210° Southwest 375 432 11,000 -244 Level Chicago Center
Tue 07:31:31 AM 42.8111 -88.2564 190° South 314 361 10,500 -927 Descending Chicago Center
Tue 07:32:33 AM 42.7292 -88.2586 181° South 294 338 9,100 -1,220 Descending Chicago Center
Tue 07:33:34 AM 42.6511 -88.2608 181° South 283 326 8,000 -537 Descending Chicago Center
Tue 07:34:36 AM 42.5761 -88.2600 180° South 269 310 8,000 -48 Level Chicago Center
Tue 07:35:38 AM 42.4817 -88.2636 182° South 277 319 7,900 -488 Descending Chicago Center
Tue 07:36:39 AM 42.4072 -88.2656 181° South 272 313 7,000 -871 Descending Chicago Center
Tue 07:37:42 AM 42.3306 -88.2664 180° South 269 310 6,100 -488 Descending Chicago Center
Tue 07:38:42 AM 42.2561 -88.2683 181° South 268 308 6,000 -49 Descending Chicago Center
Tue 07:39:44 AM 42.1781 -88.2711 182° South 264 304 6,000 -97 Level Chicago Center
Tue 07:40:46 AM 42.1128 -88.2500 167° South 237 273 5,800 -585 Descending Chicago Center
Tue 07:41:47 AM 42.0567 -88.2272 163° South 208 239 4,800 -927 Descending Chicago Center
Tue 07:42:49 AM 42.0161 -88.1814 140° Southeast 190 219 3,900 -823 Descending Chicago Center
Tue 07:43:51 AM 42.0003 -88.1242 110° East 165 190 3,100 -683 Descending Chicago Center
Tue 07:44:52 AM 42.0019 -88.0586 88° East 165 190 2,500 -585 Descending Chicago Center
Tue 07:45:54 AM 42.0017 -88.0025 90° East 153 176 1,900 -629 Descending Chicago Center
Tue 07:46:56 AM 42.0017 -87.9561 90° East 131 151 1,200 -532 Descending Chicago Center
Tue 07:47:58 AM 42.0022 -87.9089 89° East 131 151 800 -387 Descending Chicago Center

Login

Don't have an account? Register now (free) for customized features, flight alerts, and more!